aviador You're here:

LFRI Decoded Metar

LA ROCHE-SUR-YON in FRANCE
Report Time2018-01-21 22:30:00
UTC Time2018-01-21 22:37:36
Flight Rules lifr LIFR
Wind250° at 15 kt
W.Decomp.*RWY 28: 13.2 kt HW 7 kt LCW
W.Rank250° ranks 2
Current wind is above 250° avg. (7.9)
Visibility3900 m
Phenomena:Light Drizzle
Mist
Clouds:Overcast 004 Hf
Expected CloudBase > 400 ft AGL from Temp-Dew spread
Ceiling400 ft
Temp12°C (ISA -2)
Dew Point11°C (94% RH)
AAT6.9°C
QNH1020 hPa
Density Alt-46 ft
Elevation299 ft
Report Wrong Elevation
Raw Report
METAR LFRI 212230Z AUTO 25015KT 3900 -DZ BR OVC004 12/11 Q1020=

Extra information for LFRI:More info

Metar Taf Metar & Taf Last 4 Metars F.Rules Stats Wind Profile Meteogram Temp Stats Airport Information Weather charts Add Link Nearby VenuesMetar ALERT Operation Metar Decoded Social comments